Terminal Aerodrome Forecast
Issued by NWS

Home | Current Version | Previous Version | Graphics & Text | Print | Product List | Glossary On
Versions: 1 2 3 4 5 6 7 8 9 10 11 12 13 14 15 16 17 18 19 20 21 22 23 24 25 26
018
FTUS43 KICT 260712 AAA
TAFRSL
TAF AMD
KRSL 260712Z 2607/2706 08005KT 6SM BR OVC005
     FM260900 09003KT 4SM BR SCT003 OVC005
      TEMPO 2609/2613 2SM BR OVC003
     FM261500 08008KT P6SM SCT009 BKN015
     FM261800 07013KT P6SM SCT060 BKN100
     FM262100 06012KT P6SM VCTS BKN035CB
     FM270100 03010KT P6SM VCSH OVC015=

USA.gov is the U.S. government's official web portal to all federal, state and local government web resources and services.